createdAt,value
2023-12-11T00:00:01.573Z,9.50
2023-12-11T00:02:32.438Z,9.60
2023-12-11T00:04:59.456Z,9.50
2023-12-11T00:07:27.103Z,9.50
2023-12-11T00:09:54.761Z,9.50
2023-12-11T00:12:22.969Z,9.60
2023-12-11T00:14:50.117Z,9.50
2023-12-11T00:17:17.174Z,9.50
2023-12-11T00:19:44.676Z,9.50
2023-12-11T00:22:12.064Z,9.50
2023-12-11T00:24:39.654Z,9.50
2023-12-11T00:27:06.829Z,9.50
2023-12-11T00:29:34.378Z,9.50
2023-12-11T00:32:01.868Z,9.60
2023-12-11T00:34:29.028Z,9.60
2023-12-11T00:36:56.604Z,9.70
2023-12-11T00:39:23.958Z,9.70
2023-12-11T00:41:51.369Z,9.60
2023-12-11T00:44:18.401Z,9.60
2023-12-11T00:46:46.741Z,9.60
2023-12-11T00:49:13.798Z,9.50
2023-12-11T00:51:41.396Z,9.50
2023-12-11T00:54:08.458Z,9.30
2023-12-11T00:56:35.456Z,9.30
2023-12-11T00:59:02.515Z,9.20
2023-12-11T01:01:29.638Z,9.20
2023-12-11T01:03:56.770Z,9.10
2023-12-11T01:06:23.806Z,9.20
2023-12-11T01:08:51.287Z,9.20
2023-12-11T01:11:18.723Z,9.10
2023-12-11T01:13:46.173Z,9.20
2023-12-11T01:16:13.750Z,9.20
2023-12-11T01:18:41.017Z,9.20
2023-12-11T01:21:08.361Z,9.20
2023-12-11T01:23:35.842Z,9.20
2023-12-11T01:26:03.167Z,9.20
2023-12-11T01:28:31.341Z,9.30
2023-12-11T01:30:58.894Z,9.30
2023-12-11T01:33:26.550Z,9.30
2023-12-11T01:35:53.671Z,9.20
2023-12-11T01:38:20.908Z,9.30
2023-12-11T01:40:49.397Z,9.20
2023-12-11T01:43:19.349Z,9.20
2023-12-11T01:45:57.885Z,9.10
2023-12-11T01:48:25.078Z,9.20
2023-12-11T01:50:52.252Z,9.20
2023-12-11T01:53:20.032Z,9.10
2023-12-11T01:55:47.603Z,9.20
2023-12-11T01:58:14.667Z,9.30
2023-12-11T02:00:41.846Z,9.30
2023-12-11T02:03:10.138Z,9.40
2023-12-11T02:05:38.569Z,9.40
2023-12-11T02:08:05.804Z,9.40
2023-12-11T02:10:33.490Z,9.50
2023-12-11T02:13:00.815Z,9.40
2023-12-11T02:15:47.488Z,9.50
2023-12-11T02:18:15.844Z,9.60
2023-12-11T02:20:43.405Z,9.60
2023-12-11T02:23:15.699Z,9.60
2023-12-11T02:25:43.248Z,9.60
2023-12-11T02:28:10.797Z,9.60
2023-12-11T02:30:40.648Z,9.60
2023-12-11T02:33:08.180Z,9.60
2023-12-11T02:35:35.419Z,9.60
2023-12-11T02:38:02.436Z,9.60
2023-12-11T02:40:29.488Z,9.50
2023-12-11T02:42:57.061Z,9.50
2023-12-11T02:45:24.365Z,9.60
2023-12-11T02:47:52.851Z,9.60
2023-12-11T02:50:20.432Z,9.60
2023-12-11T02:52:47.489Z,9.60
2023-12-11T02:55:14.873Z,9.60
2023-12-11T02:57:42.420Z,9.60
2023-12-11T03:00:10.062Z,9.70
2023-12-11T03:02:38.902Z,9.60
2023-12-11T03:05:06.124Z,9.60
2023-12-11T03:07:33.276Z,9.60
2023-12-11T03:10:00.482Z,9.60
2023-12-11T03:12:28.064Z,9.70
2023-12-11T03:14:55.827Z,9.70
2023-12-11T03:17:23.332Z,9.70
2023-12-11T03:19:50.671Z,9.70
2023-12-11T03:22:19.197Z,9.70
2023-12-11T03:24:48.457Z,9.80
2023-12-11T03:27:15.508Z,9.80
2023-12-11T03:29:43.309Z,9.80
2023-12-11T03:32:10.790Z,9.80
2023-12-11T03:34:38.029Z,9.90
2023-12-11T03:37:05.978Z,9.90
2023-12-11T03:39:33.072Z,9.90
2023-12-11T03:42:00.182Z,9.90
2023-12-11T03:44:47.258Z,10.00
2023-12-11T03:47:14.833Z,10.00
2023-12-11T03:49:42.384Z,10.00
2023-12-11T03:52:10.009Z,10.00
2023-12-11T03:54:37.398Z,10.00
2023-12-11T03:57:04.894Z,10.00
2023-12-11T03:59:33.695Z,10.10
2023-12-11T04:02:01.212Z,10.10
2023-12-11T04:04:28.668Z,10.10
2023-12-11T04:06:55.823Z,10.10
2023-12-11T04:09:22.868Z,10.00
2023-12-11T04:11:50.324Z,10.00
2023-12-11T04:14:17.352Z,10.00
2023-12-11T04:16:45.097Z,10.00
2023-12-11T04:19:16.133Z,10.00
2023-12-11T04:21:43.314Z,10.00
2023-12-11T04:24:13.268Z,10.00
2023-12-11T04:26:41.952Z,10.00
2023-12-11T04:29:09.479Z,10.00
2023-12-11T04:31:37.134Z,10.00
2023-12-11T04:34:04.660Z,10.00
2023-12-11T04:36:31.992Z,10.10
2023-12-11T04:38:59.099Z,10.00
2023-12-11T04:41:26.200Z,10.00
2023-12-11T04:43:53.753Z,10.00
2023-12-11T04:46:20.864Z,10.00
2023-12-11T04:48:48.151Z,9.90
2023-12-11T04:51:16.331Z,9.90
2023-12-11T04:53:43.867Z,9.90
2023-12-11T04:56:12.743Z,10.00
2023-12-11T04:58:39.984Z,9.90
2023-12-11T05:01:07.219Z,9.90
2023-12-11T05:03:34.840Z,9.90
2023-12-11T05:06:02.107Z,9.90
2023-12-11T05:08:30.685Z,9.90
2023-12-11T05:10:58.612Z,9.90
2023-12-11T05:13:26.585Z,9.90
2023-12-11T05:15:53.781Z,9.90
2023-12-11T05:18:20.940Z,10.00
2023-12-11T05:20:48.703Z,9.90
2023-12-11T05:23:15.722Z,9.80
2023-12-11T05:25:42.998Z,9.80
2023-12-11T05:28:10.212Z,9.80
2023-12-11T05:30:38.869Z,9.80
2023-12-11T05:33:05.953Z,9.80
2023-12-11T05:35:33.778Z,9.80
2023-12-11T05:38:00.920Z,9.80
2023-12-11T05:40:29.595Z,9.80
2023-12-11T05:42:58.215Z,9.80
2023-12-11T05:45:25.796Z,9.80
2023-12-11T05:47:53.372Z,9.80
2023-12-11T05:50:22.248Z,9.80
2023-12-11T05:52:49.382Z,9.80
2023-12-11T05:55:16.600Z,9.70
2023-12-11T05:57:45.710Z,9.70
2023-12-11T06:00:16.196Z,9.70
2023-12-11T06:02:43.392Z,9.80
2023-12-11T06:05:11.244Z,9.70
2023-12-11T06:07:38.366Z,9.70
2023-12-11T06:10:07.749Z,9.70
2023-12-11T06:12:35.061Z,9.70
2023-12-11T06:15:02.392Z,9.70
2023-12-11T06:17:30.439Z,9.60
2023-12-11T06:19:57.845Z,9.60
2023-12-11T06:22:25.363Z,9.60
2023-12-11T06:24:53.149Z,9.60
2023-12-11T06:27:20.243Z,9.70
2023-12-11T06:29:49.034Z,9.70
2023-12-11T06:32:16.577Z,9.70
2023-12-11T06:35:04.082Z,9.60
2023-12-11T06:37:32.131Z,9.60
2023-12-11T06:39:59.440Z,9.60
2023-12-11T06:42:26.763Z,9.40
2023-12-11T06:44:54.825Z,9.40
2023-12-11T06:47:22.029Z,9.40
2023-12-11T06:49:49.385Z,9.40
2023-12-11T06:52:18.562Z,9.30
2023-12-11T06:54:47.286Z,9.30
2023-12-11T06:57:14.420Z,9.30
2023-12-11T06:59:42.505Z,9.30
2023-12-11T07:02:09.800Z,9.30
2023-12-11T07:04:37.186Z,9.30
2023-12-11T07:07:04.972Z,9.30
2023-12-11T07:09:32.715Z,9.30
2023-12-11T07:11:59.787Z,9.20
2023-12-11T07:14:26.988Z,9.20
2023-12-11T07:16:54.123Z,9.20
2023-12-11T07:19:23.982Z,9.20
2023-12-11T07:21:51.114Z,9.30
2023-12-11T07:24:18.844Z,9.30
2023-12-11T07:26:46.095Z,9.30
2023-12-11T07:29:13.212Z,9.30
2023-12-11T07:31:43.831Z,9.40
2023-12-11T07:34:11.209Z,9.40
2023-12-11T07:36:38.964Z,9.40
2023-12-11T07:39:07.463Z,9.40
2023-12-11T07:41:35.137Z,9.50
2023-12-11T07:44:02.388Z,9.50
2023-12-11T07:46:31.825Z,9.50
2023-12-11T07:48:59.081Z,9.50
2023-12-11T07:51:27.561Z,9.60
2023-12-11T07:53:56.981Z,9.50
2023-12-11T07:56:24.966Z,9.60
2023-12-11T07:58:52.596Z,9.60
2023-12-11T08:01:20.064Z,9.60
2023-12-11T08:03:47.598Z,9.60
2023-12-11T08:06:15.453Z,9.60
2023-12-11T08:08:45.043Z,9.60
2023-12-11T08:11:20.267Z,9.60
2023-12-11T08:13:47.859Z,9.60
2023-12-11T08:16:15.179Z,9.60
2023-12-11T08:18:43.483Z,9.60
2023-12-11T08:21:11.353Z,9.60
2023-12-11T08:23:42.301Z,9.60
2023-12-11T08:26:10.708Z,9.60
2023-12-11T08:28:37.838Z,9.70
2023-12-11T08:31:05.674Z,9.80
2023-12-11T08:33:33.239Z,9.80
2023-12-11T08:36:00.371Z,9.80
2023-12-11T08:38:27.870Z,9.80
2023-12-11T08:40:55.348Z,9.80
2023-12-11T08:43:22.893Z,9.80
2023-12-11T08:45:51.994Z,9.80
2023-12-11T08:48:19.949Z,9.90
2023-12-11T08:50:50.265Z,9.90
2023-12-11T08:53:17.786Z,9.90
2023-12-11T08:55:44.940Z,9.90
2023-12-11T08:58:12.206Z,9.90
2023-12-11T09:00:39.909Z,9.90
2023-12-11T09:03:07.526Z,10.00
2023-12-11T09:05:35.678Z,10.00
2023-12-11T09:08:04.052Z,10.00
2023-12-11T09:10:31.951Z,10.00
2023-12-11T09:12:59.231Z,10.00
2023-12-11T09:15:26.854Z,9.90
2023-12-11T09:17:53.999Z,9.90
2023-12-11T09:20:21.664Z,9.90
2023-12-11T09:22:49.110Z,9.90
2023-12-11T09:25:16.311Z,10.00
2023-12-11T09:27:45.082Z,10.00
2023-12-11T09:30:13.062Z,10.00
2023-12-11T09:32:42.140Z,10.00
2023-12-11T09:35:09.851Z,10.00
2023-12-11T09:37:37.216Z,10.00
2023-12-11T09:40:06.895Z,10.10
2023-12-11T09:42:35.709Z,10.00
2023-12-11T09:45:02.814Z,10.00
2023-12-11T09:47:38.840Z,10.00
2023-12-11T09:50:06.822Z,10.10
2023-12-11T09:52:35.646Z,10.00
2023-12-11T09:55:03.691Z,10.10
2023-12-11T09:57:31.473Z,10.10
2023-12-11T09:59:59.141Z,10.10
2023-12-11T10:02:28.810Z,10.10
2023-12-11T10:05:12.180Z,10.20
2023-12-11T10:07:42.547Z,10.20
2023-12-11T10:10:22.718Z,10.10
2023-12-11T10:12:49.930Z,10.10
2023-12-11T10:15:36.920Z,10.10
2023-12-11T10:18:09.356Z,10.10
2023-12-11T10:20:38.178Z,10.10
2023-12-11T10:23:19.662Z,10.10
2023-12-11T10:25:49.018Z,10.10
2023-12-11T10:28:18.387Z,10.20
2023-12-11T10:30:52.958Z,10.00
2023-12-11T10:33:20.882Z,10.20
2023-12-11T10:35:48.380Z,10.20
2023-12-11T10:38:25.875Z,10.30
2023-12-11T10:40:54.091Z,10.30
2023-12-11T10:43:22.321Z,10.30
2023-12-11T10:45:51.841Z,10.40
2023-12-11T10:48:21.484Z,10.30
2023-12-11T10:50:49.851Z,10.40
2023-12-11T10:53:18.990Z,10.30
2023-12-11T10:55:46.341Z,10.30
2023-12-11T10:58:13.989Z,10.40
2023-12-11T11:00:41.755Z,10.40
2023-12-11T11:03:09.523Z,10.40
2023-12-11T11:05:38.045Z,10.40
2023-12-11T11:08:20.891Z,10.40
2023-12-11T11:10:53.181Z,10.30
2023-12-11T11:13:24.692Z,10.20
2023-12-11T11:15:54.042Z,10.20
2023-12-11T11:18:21.687Z,10.30
2023-12-11T11:21:08.350Z,10.20
2023-12-11T11:23:44.256Z,10.30
2023-12-11T11:26:36.052Z,10.30
2023-12-11T11:29:05.524Z,10.40
2023-12-11T11:31:53.216Z,10.40
2023-12-11T11:34:43.066Z,10.40
2023-12-11T11:37:12.174Z,10.40
2023-12-11T11:40:02.566Z,10.40
2023-12-11T11:42:31.869Z,10.30
2023-12-11T11:45:01.252Z,10.30
2023-12-11T11:47:31.037Z,10.30
2023-12-11T11:50:12.658Z,10.40
2023-12-11T11:52:43.464Z,10.30
2023-12-11T11:55:25.844Z,10.30
2023-12-11T11:57:55.902Z,10.30
2023-12-11T12:00:29.365Z,10.30
2023-12-11T12:02:58.409Z,10.30
2023-12-11T12:05:27.789Z,10.20
2023-12-11T12:07:55.796Z,10.20
2023-12-11T12:10:24.888Z,10.30
2023-12-11T12:12:59.101Z,10.30
2023-12-11T12:15:26.981Z,10.30
2023-12-11T12:17:55.052Z,10.40
2023-12-11T12:20:22.273Z,10.40
2023-12-11T12:23:16.483Z,10.40
2023-12-11T12:25:44.180Z,10.30
2023-12-11T12:28:12.781Z,10.40
2023-12-11T12:30:41.710Z,10.40
2023-12-11T12:33:11.440Z,10.50
2023-12-11T12:35:39.148Z,10.50
2023-12-11T12:38:07.084Z,10.50
2023-12-11T12:40:37.272Z,10.50
2023-12-11T12:43:12.225Z,10.50
2023-12-11T12:45:39.671Z,10.60
2023-12-11T12:48:07.861Z,10.60
2023-12-11T12:50:36.560Z,10.50
2023-12-11T12:53:15.536Z,10.60
2023-12-11T12:55:44.519Z,10.60
2023-12-11T12:58:14.865Z,10.60
2023-12-11T13:00:44.802Z,10.50
2023-12-11T13:03:12.142Z,10.50
2023-12-11T13:05:40.013Z,10.50
2023-12-11T13:08:08.153Z,10.50
2023-12-11T13:10:35.313Z,10.50
2023-12-11T13:13:13.126Z,10.50
2023-12-11T13:15:41.778Z,10.50
2023-12-11T13:18:13.756Z,10.50
2023-12-11T13:20:40.915Z,10.50
2023-12-11T13:23:08.467Z,10.60
2023-12-11T13:25:38.276Z,10.50
2023-12-11T13:28:07.446Z,10.50
2023-12-11T13:30:35.679Z,10.50
2023-12-11T13:33:04.447Z,10.50
2023-12-11T13:35:32.577Z,10.50
2023-12-11T13:37:59.822Z,10.50
2023-12-11T13:40:27.653Z,10.50
2023-12-11T13:42:55.668Z,10.60
2023-12-11T13:45:23.323Z,10.50
2023-12-11T13:47:51.091Z,10.50
2023-12-11T13:50:19.196Z,10.50
2023-12-11T13:52:46.541Z,10.40
2023-12-11T13:55:14.091Z,10.40
2023-12-11T13:57:41.513Z,10.30
2023-12-11T14:00:09.362Z,10.40
2023-12-11T14:02:59.782Z,10.30
2023-12-11T14:05:24.620Z,10.40
2023-12-11T14:07:53.674Z,10.40
2023-12-11T14:10:20.777Z,10.30
2023-12-11T14:12:47.989Z,10.30
2023-12-11T14:15:16.352Z,10.30
2023-12-11T14:17:43.678Z,10.20
2023-12-11T14:20:13.140Z,10.10
2023-12-11T14:22:41.411Z,10.20
2023-12-11T14:25:10.016Z,10.30
2023-12-11T14:27:38.185Z,10.20
2023-12-11T14:30:06.080Z,10.20
2023-12-11T14:32:34.359Z,10.20
2023-12-11T14:35:02.014Z,10.30
2023-12-11T14:37:30.133Z,10.20
2023-12-11T14:39:57.416Z,10.20
2023-12-11T14:42:25.177Z,10.20
2023-12-11T14:44:53.663Z,10.10
2023-12-11T14:47:22.137Z,10.10
2023-12-11T14:49:49.358Z,10.00
2023-12-11T14:52:16.737Z,9.90
2023-12-11T14:54:44.510Z,9.90
2023-12-11T14:57:11.947Z,9.90
2023-12-11T14:59:40.637Z,9.80
2023-12-11T15:02:07.763Z,9.70
2023-12-11T15:04:35.104Z,9.60
2023-12-11T15:07:05.078Z,9.60
2023-12-11T15:09:34.365Z,9.60
2023-12-11T15:12:01.997Z,9.50
2023-12-11T15:14:31.476Z,9.50
2023-12-11T15:16:59.618Z,9.40
2023-12-11T15:19:26.802Z,9.50
2023-12-11T15:21:55.438Z,9.50
2023-12-11T15:24:22.482Z,9.50
2023-12-11T15:26:51.209Z,9.60
2023-12-11T15:29:18.234Z,9.70
2023-12-11T15:31:45.324Z,9.70
2023-12-11T15:34:12.527Z,9.80
2023-12-11T15:36:39.749Z,9.70
2023-12-11T15:39:10.050Z,9.70
2023-12-11T15:41:37.084Z,9.70
2023-12-11T15:44:05.736Z,9.70
2023-12-11T15:46:33.892Z,9.60
2023-12-11T15:49:02.310Z,9.60
2023-12-11T15:51:30.706Z,9.50
2023-12-11T15:53:57.854Z,9.60
2023-12-11T15:56:27.185Z,9.60
2023-12-11T15:58:54.635Z,9.50
2023-12-11T16:01:21.768Z,9.50
2023-12-11T16:03:49.304Z,9.50
2023-12-11T16:06:18.046Z,9.50
2023-12-11T16:08:45.305Z,9.50
2023-12-11T16:11:16.155Z,9.50
2023-12-11T16:13:43.567Z,9.40
2023-12-11T16:16:12.306Z,9.40
2023-12-11T16:18:45.475Z,9.30
2023-12-11T16:21:13.566Z,9.30
2023-12-11T16:23:40.923Z,9.30
2023-12-11T16:26:13.767Z,9.30
2023-12-11T16:28:42.305Z,9.30
2023-12-11T16:31:11.094Z,9.30
2023-12-11T16:33:38.341Z,9.30
2023-12-11T16:36:14.013Z,9.30
2023-12-11T16:38:44.904Z,9.30
2023-12-11T16:41:12.273Z,9.30
2023-12-11T16:43:49.025Z,9.30
2023-12-11T16:46:17.247Z,9.40
2023-12-11T16:48:44.775Z,9.30
2023-12-11T16:51:12.019Z,9.40
2023-12-11T16:53:41.763Z,9.40
2023-12-11T16:56:10.879Z,9.40
2023-12-11T16:58:40.201Z,9.40
2023-12-11T17:01:07.399Z,9.40
2023-12-11T17:03:34.550Z,9.40
2023-12-11T17:06:01.767Z,9.40
2023-12-11T17:08:29.202Z,9.40
2023-12-11T17:10:56.256Z,9.40
2023-12-11T17:13:23.926Z,9.30
2023-12-11T17:15:51.080Z,9.40
2023-12-11T17:18:22.400Z,9.30
2023-12-11T17:20:49.521Z,9.40
2023-12-11T17:23:18.421Z,9.40
2023-12-11T17:25:46.022Z,9.40
2023-12-11T17:28:15.805Z,9.40
2023-12-11T17:30:43.465Z,9.30
2023-12-11T17:33:10.608Z,9.40
2023-12-11T17:35:38.205Z,9.40
2023-12-11T17:38:08.174Z,9.30
2023-12-11T17:40:35.199Z,9.30
2023-12-11T17:43:02.690Z,9.30
2023-12-11T17:45:29.767Z,9.30
2023-12-11T17:47:58.732Z,9.30
2023-12-11T17:50:25.906Z,9.30
2023-12-11T17:52:53.095Z,9.30
2023-12-11T17:55:20.592Z,9.20
2023-12-11T17:57:48.948Z,9.20
2023-12-11T18:00:16.389Z,9.20
2023-12-11T18:02:43.550Z,9.20
2023-12-11T18:05:11.947Z,9.20
2023-12-11T18:07:39.122Z,9.20
2023-12-11T18:10:07.341Z,9.20
2023-12-11T18:12:35.989Z,9.10
2023-12-11T18:15:03.769Z,9.10
2023-12-11T18:17:31.061Z,9.10
2023-12-11T18:19:58.458Z,9.10
2023-12-11T18:22:26.319Z,9.00
2023-12-11T18:24:54.555Z,9.00
2023-12-11T18:27:21.587Z,9.00
2023-12-11T18:29:48.778Z,9.00
2023-12-11T19:52:16.694Z,9.20
2023-12-11T19:54:44.056Z,9.20
2023-12-11T19:57:12.473Z,9.10
2023-12-11T19:59:39.747Z,9.20
2023-12-11T20:02:09.440Z,9.10
2023-12-11T20:04:39.586Z,9.10
2023-12-11T20:07:08.661Z,9.10
2023-12-11T20:09:35.834Z,9.10
2023-12-11T20:12:11.009Z,9.10
2023-12-11T20:14:42.070Z,9.10
2023-12-11T20:17:12.417Z,9.00
2023-12-11T20:19:39.724Z,9.00
2023-12-11T20:22:07.530Z,9.10
2023-12-11T20:24:35.017Z,9.00
2023-12-11T20:27:02.036Z,9.00
2023-12-11T20:29:29.317Z,9.00
2023-12-11T20:31:56.314Z,9.00
2023-12-11T20:34:23.429Z,9.00
2023-12-11T20:36:50.899Z,9.00
2023-12-11T20:39:18.362Z,9.00
2023-12-11T20:41:48.268Z,9.00
2023-12-11T20:44:16.395Z,9.00
2023-12-11T20:46:46.795Z,9.00
2023-12-11T20:49:14.723Z,9.10
2023-12-11T20:51:45.016Z,9.00
2023-12-11T20:54:12.133Z,9.00
2023-12-11T20:56:39.396Z,9.00
2023-12-11T20:59:06.989Z,8.90
2023-12-11T21:01:37.588Z,9.00
2023-12-11T21:04:06.094Z,9.00
2023-12-11T21:06:33.415Z,9.00
2023-12-11T21:09:01.164Z,9.00
2023-12-11T21:11:28.440Z,8.90
2023-12-11T21:13:55.502Z,8.90
2023-12-11T21:16:22.793Z,8.90
2023-12-11T21:18:51.125Z,8.90
2023-12-11T21:21:19.027Z,8.90
2023-12-11T21:23:47.039Z,9.00
2023-12-11T21:26:15.133Z,9.00
2023-12-11T21:28:42.360Z,9.00
2023-12-11T21:31:27.415Z,8.90
2023-12-11T21:33:55.333Z,9.00
2023-12-11T21:36:27.772Z,8.90
2023-12-11T21:38:55.043Z,9.00
2023-12-11T21:41:22.074Z,8.90
2023-12-11T21:43:50.294Z,8.90
2023-12-11T21:46:18.187Z,8.90
2023-12-11T21:48:45.591Z,8.90
2023-12-11T21:51:16.772Z,8.90
2023-12-11T21:53:43.987Z,8.90
2023-12-11T21:56:11.193Z,8.90
2023-12-11T21:58:38.409Z,8.90
2023-12-11T22:01:06.062Z,8.90
2023-12-11T22:03:33.388Z,8.90
2023-12-11T22:06:00.460Z,8.80
2023-12-11T22:08:27.935Z,8.80
2023-12-11T22:10:55.106Z,8.90
2023-12-11T22:13:22.643Z,8.80
2023-12-11T22:15:50.176Z,8.80
2023-12-11T22:18:17.889Z,8.80
2023-12-11T22:20:45.125Z,8.80
2023-12-11T22:23:13.051Z,8.80
2023-12-11T22:25:40.098Z,8.70
2023-12-11T22:28:07.160Z,8.70
2023-12-11T22:30:34.249Z,8.60
2023-12-11T22:33:01.374Z,8.60
2023-12-11T22:35:29.250Z,8.60
2023-12-11T22:37:56.239Z,8.50
2023-12-11T22:40:23.356Z,8.50
2023-12-11T22:42:50.522Z,8.50
2023-12-11T22:45:19.860Z,8.50
2023-12-11T22:47:47.166Z,8.50
2023-12-11T22:50:14.517Z,8.50
2023-12-11T22:52:41.566Z,8.50
2023-12-11T22:55:09.171Z,8.50
2023-12-11T22:57:36.223Z,8.50
2023-12-11T23:00:04.989Z,8.50
2023-12-11T23:02:31.953Z,8.50
2023-12-11T23:04:59.214Z,8.50
2023-12-11T23:07:26.457Z,8.50
2023-12-11T23:09:53.591Z,8.50
2023-12-11T23:12:20.648Z,8.50
2023-12-11T23:14:47.605Z,8.50
2023-12-11T23:17:14.811Z,8.50
2023-12-11T23:19:42.045Z,8.50
2023-12-11T23:22:09.253Z,8.50
2023-12-11T23:24:37.098Z,8.40
2023-12-11T23:27:04.211Z,8.30
2023-12-11T23:29:31.393Z,8.40
2023-12-11T23:31:58.457Z,8.40
2023-12-11T23:34:25.883Z,8.30
2023-12-11T23:36:53.351Z,8.40
2023-12-11T23:39:20.397Z,8.30
2023-12-11T23:41:47.398Z,8.20
2023-12-11T23:44:14.842Z,8.20
2023-12-11T23:46:41.986Z,8.20
2023-12-11T23:49:09.568Z,8.20
2023-12-11T23:51:36.887Z,8.10
2023-12-11T23:54:03.985Z,8.10
2023-12-11T23:56:30.943Z,8.10
2023-12-11T23:58:58.207Z,8.00
